Time;durP1;ratioP1;P1;durP2;ratioP2;P2;SDS_P1;SDS_P2;PMS_P1;PMS_P2;Temp;Humidity;BMP_temperature;BMP_pressure;BME280_temperature;BME280_humidity;BME280_pressure;Samples;Min_cycle;Max_cycle;Signal;HPM_P1;HPM_P2
2022/12/26 00:00:55;;;;;;;6.90;6.40;;;13.70;99.90;;;;;;5047338;28;20455;-64
2022/12/26 00:03:21;;;;;;;6.20;5.70;;;13.70;99.90;;;;;;5031410;28;20812;-64
2022/12/26 00:05:47;;;;;;;6.53;6.00;;;13.70;99.90;;;;;;5036269;28;20446;-65
2022/12/26 00:08:13;;;;;;;6.00;5.60;;;13.80;99.90;;;;;;5047420;28;20495;-64
2022/12/26 00:10:39;;;;;;;5.53;5.23;;;13.80;99.90;;;;;;5051877;28;20192;-64
2022/12/26 00:13:04;;;;;;;5.10;4.90;;;13.80;99.90;;;;;;5049465;28;20183;-64
2022/12/26 00:15:30;;;;;;;5.50;5.20;;;13.80;99.90;;;;;;5046904;28;20282;-64
2022/12/26 00:17:56;;;;;;;5.57;5.17;;;13.80;99.90;;;;;;5046984;28;20215;-64
2022/12/26 00:20:21;;;;;;;5.60;5.30;;;13.80;99.90;;;;;;5043626;28;20180;-64
2022/12/26 00:22:49;;;;;;;5.80;5.40;;;13.80;99.90;;;;;;5047330;28;20192;-64
2022/12/26 00:25:17;;;;;;;5.77;5.37;;;13.80;99.90;;;;;;5030643;28;20268;-64
2022/12/26 00:27:43;;;;;;;5.40;5.10;;;13.80;99.90;;;;;;5040146;28;20435;-64
2022/12/26 00:30:09;;;;;;;5.13;4.83;;;13.90;99.90;;;;;;5046444;28;20428;-69
2022/12/26 00:32:35;;;;;;;5.67;5.37;;;13.90;99.90;;;;;;5046563;28;20186;-67
2022/12/26 00:35:01;;;;;;;6.33;5.73;;;13.80;99.90;;;;;;5044617;28;20542;-65
2022/12/26 00:37:27;;;;;;;6.03;5.73;;;13.70;99.90;;;;;;5052249;28;20775;-64
2022/12/26 00:39:52;;;;;;;6.43;5.93;;;13.70;99.90;;;;;;5055385;28;20172;-64
2022/12/26 00:42:18;;;;;;;7.33;6.50;;;13.70;99.90;;;;;;5050528;28;20205;-64
2022/12/26 00:44:43;;;;;;;7.20;6.70;;;13.70;99.90;;;;;;5050046;28;20180;-64
2022/12/26 00:47:09;;;;;;;7.60;6.90;;;13.80;99.90;;;;;;5051209;28;20282;-69
2022/12/26 00:49:35;;;;;;;7.70;7.10;;;13.80;99.90;;;;;;5052911;28;20188;-65
2022/12/26 00:52:00;;;;;;;7.83;7.23;;;13.80;99.90;;;;;;5044920;28;20186;-64
2022/12/26 00:54:26;;;;;;;8.00;7.40;;;13.80;99.90;;;;;;5051416;28;20201;-64
2022/12/26 00:56:52;;;;;;;7.60;7.20;;;13.80;99.90;;;;;;5054184;28;20210;-63
2022/12/26 00:59:17;;;;;;;8.97;7.73;;;13.90;99.90;;;;;;5051910;28;20201;-63
2022/12/26 01:01:43;;;;;;;7.53;6.93;;;13.90;99.90;;;;;;5052431;28;20184;-64
2022/12/26 01:04:09;;;;;;;6.57;6.17;;;13.90;99.90;;;;;;5051483;28;20179;-70
2022/12/26 01:06:34;;;;;;;6.83;6.33;;;13.80;99.90;;;;;;5045129;28;20200;-70
2022/12/26 01:09:00;;;;;;;7.27;6.77;;;13.80;99.90;;;;;;5050616;28;20180;-64
2022/12/26 01:11:41;;;;;;;8.17;6.00;;;13.80;99.90;;;;;;5054332;28;20184;-64
2022/12/26 01:14:16;;;;;;;6.93;6.47;;;13.80;99.90;;;;;;5051309;28;20184;-66
2022/12/26 01:16:44;;;;;;;6.80;6.20;;;13.80;99.90;;;;;;5051907;28;20495;-64
2022/12/26 01:19:11;;;;;;;6.07;5.67;;;13.80;99.90;;;;;;5043061;28;20516;-68
2022/12/26 01:21:37;;;;;;;6.77;6.10;;;13.80;99.90;;;;;;5054578;28;20422;-64
2022/12/26 01:24:04;;;;;;;6.77;6.27;;;13.80;99.90;;;;;;5048281;28;20431;-64
2022/12/26 01:26:29;;;;;;;7.20;6.60;;;13.80;99.90;;;;;;5046616;28;20437;-64
2022/12/26 01:28:55;;;;;;;5.90;5.50;;;13.80;99.90;;;;;;5050861;28;20510;-64
2022/12/26 01:31:22;;;;;;;6.47;5.93;;;13.90;99.90;;;;;;5052391;28;20221;-66
2022/12/26 01:33:48;;;;;;;6.70;6.20;;;13.90;99.90;;;;;;5047773;28;20229;-64
2022/12/26 01:36:15;;;;;;;6.20;5.70;;;13.90;99.90;;;;;;5053133;28;20557;-64
2022/12/26 01:38:41;;;;;;;6.53;5.87;;;13.90;99.90;;;;;;5052024;28;20453;-63
2022/12/26 01:41:15;;;;;;;6.13;5.53;;;14.00;99.90;;;;;;5051424;28;20430;-64
2022/12/26 01:43:58;;;;;;;6.20;5.70;;;14.00;99.90;;;;;;5043314;28;20265;-64
2022/12/26 01:46:30;;;;;;;5.67;5.27;;;14.00;99.90;;;;;;5049983;28;20433;-64
2022/12/26 01:48:59;;;;;;;6.07;5.50;;;14.00;99.90;;;;;;5051728;28;20447;-64
2022/12/26 01:51:31;;;;;;;5.97;5.57;;;14.00;99.90;;;;;;5052191;28;20424;-64
2022/12/26 01:54:00;;;;;;;8.73;7.63;;;13.90;99.90;;;;;;5051169;28;20446;-64
2022/12/26 01:56:34;;;;;;;8.50;7.80;;;13.80;99.90;;;;;;5047593;28;20469;-64
2022/12/26 01:59:17;;;;;;;7.47;6.87;;;13.80;99.90;;;;;;5048806;28;20512;-63
2022/12/26 02:01:46;;;;;;;6.90;6.40;;;13.80;99.90;;;;;;5045357;28;20459;-64
2022/12/26 02:07:02;;;;;;;6.90;6.40;;;13.80;99.90;;;;;;5039701;28;20433;-64
2022/12/26 02:09:30;;;;;;;6.40;6.00;;;13.80;99.90;;;;;;5047980;28;20436;-64
2022/12/26 02:12:03;;;;;;;6.57;6.17;;;13.70;99.90;;;;;;5053687;28;20406;-64
2022/12/26 02:14:30;;;;;;;6.90;6.50;;;13.70;99.90;;;;;;5049982;28;20829;-64
2022/12/26 02:16:56;;;;;;;7.57;6.87;;;13.70;99.90;;;;;;5051603;28;20560;-64
2022/12/26 02:19:28;;;;;;;7.40;7.00;;;13.70;99.90;;;;;;5048949;28;20873;-65
2022/12/26 02:22:21;;;;;;;7.90;7.30;;;13.80;99.90;;;;;;5053510;28;20195;-64
2022/12/26 02:25:37;;;;;;;7.33;6.83;;;13.70;99.90;;;;;;5050608;28;20430;-64
2022/12/26 02:28:29;;;;;;;7.90;7.20;;;13.70;99.90;;;;;;5039073;28;21003;-64
2022/12/26 02:30:55;;;;;;;7.47;7.07;;;13.70;99.90;;;;;;5047199;28;20463;-64
2022/12/26 02:33:39;;;;;;;7.67;7.17;;;13.70;99.90;;;;;;5041807;28;20861;-64
2022/12/26 02:36:42;;;;;;;7.00;6.50;;;13.70;99.90;;;;;;5049245;28;20204;-64
2022/12/26 02:39:32;;;;;;;7.57;6.97;;;13.70;99.90;;;;;;5052283;28;20458;-64
2022/12/26 02:42:16;;;;;;;6.97;6.40;;;13.80;99.90;;;;;;5049897;28;20433;-64
2022/12/26 02:47:40;;;;;;;7.10;6.67;;;13.80;99.90;;;;;;5048376;28;20934;-66
2022/12/26 03:14:25;;;;;;;7.90;7.30;;;13.80;99.90;;;;;;5045215;28;20408;-64
2022/12/26 03:17:21;;;;;;;8.80;8.00;;;13.70;99.90;;;;;;5048586;28;20467;-64
2022/12/26 03:19:59;;;;;;;8.70;8.00;;;13.80;99.90;;;;;;5032096;28;20440;-64
2022/12/26 03:22:37;;;;;;;7.30;6.80;;;13.80;99.90;;;;;;5031380;28;20411;-64
2022/12/26 03:28:07;;;;;;;7.00;6.53;;;13.80;99.90;;;;;;5047304;28;20446;-64
2022/12/26 03:30:48;;;;;;;7.00;6.50;;;13.70;99.90;;;;;;5044814;28;20439;-64
2022/12/26 03:36:30;;;;;;;7.70;6.27;;;13.70;99.90;;;;;;5045249;28;20868;-64
2022/12/26 03:39:06;;;;;;;7.00;6.50;;;13.70;99.90;;;;;;5048362;28;21193;-64
2022/12/26 04:44:16;;;;;;;3.60;3.47;;;13.30;99.90;;;;;;5043281;28;20462;-64
2022/12/26 04:46:44;;;;;;;3.70;3.50;;;13.30;99.90;;;;;;5034811;28;20924;-64
2022/12/26 04:51:59;;;;;;;3.60;3.50;;;13.30;99.90;;;;;;5050242;28;20440;-64
2022/12/26 04:54:25;;;;;;;3.40;3.30;;;13.30;99.90;;;;;;5051388;28;20901;-64
2022/12/26 04:56:52;;;;;;;3.60;3.50;;;13.30;99.90;;;;;;5041640;28;20476;-64
2022/12/26 04:59:18;;;;;;;2.90;2.80;;;13.20;99.90;;;;;;5046845;28;20434;-69
2022/12/26 05:10:10;;;;;;;3.30;3.20;;;13.10;99.90;;;;;;5039030;28;20452;-64
2022/12/26 05:12:35;;;;;;;3.47;3.37;;;13.10;99.90;;;;;;5040174;28;20441;-64
2022/12/26 05:15:01;;;;;;;3.90;3.70;;;13.00;99.90;;;;;;5037733;28;20430;-63
2022/12/26 05:28:42;;;;;;;3.60;3.50;;;12.90;99.90;;;;;;5035647;28;20464;-64
2022/12/26 05:31:14;;;;;;;4.00;3.80;;;12.90;99.90;;;;;;5033554;28;20425;-64
2022/12/26 05:36:29;;;;;;;4.10;3.80;;;13.00;99.90;;;;;;5035761;28;20568;-64
2022/12/26 05:38:57;;;;;;;4.03;3.80;;;12.90;99.90;;;;;;5051171;28;20432;-64
2022/12/26 05:41:23;;;;;;;3.73;3.53;;;13.00;99.90;;;;;;5041959;28;20434;-64
2022/12/26 05:43:49;;;;;;;3.90;3.70;;;12.90;99.90;;;;;;5042333;28;20449;-64
2022/12/26 05:46:15;;;;;;;4.10;3.90;;;12.90;99.90;;;;;;5034171;28;20179;-64
2022/12/26 05:48:41;;;;;;;3.90;3.70;;;12.90;99.90;;;;;;5039986;28;20186;-64
2022/12/26 05:51:06;;;;;;;3.67;3.50;;;12.90;99.90;;;;;;5037619;28;20271;-65
2022/12/26 05:53:32;;;;;;;4.10;3.90;;;12.90;99.90;;;;;;5053146;28;20443;-64
2022/12/26 05:56:06;;;;;;;4.17;3.97;;;13.00;99.90;;;;;;5043841;28;20217;-64
2022/12/26 05:58:32;;;;;;;4.00;3.80;;;12.90;99.90;;;;;;5048652;28;20190;-64
2022/12/26 06:01:10;;;;;;;4.37;4.17;;;13.00;99.90;;;;;;5053207;28;20440;-64
2022/12/26 06:03:37;;;;;;;4.40;4.10;;;12.90;99.90;;;;;;5057356;28;20493;-64
2022/12/26 06:06:04;;;;;;;3.70;3.60;;;12.90;99.90;;;;;;5054903;28;20440;-64
2022/12/26 06:08:30;;;;;;;3.90;3.80;;;12.90;99.90;;;;;;5064344;28;20428;-64
2022/12/26 06:10:56;;;;;;;4.63;4.40;;;12.90;99.90;;;;;;5047293;28;20459;-65
2022/12/26 06:13:22;;;;;;;5.23;4.90;;;12.90;99.90;;;;;;5046679;28;20555;-69
2022/12/26 06:15:48;;;;;;;4.50;4.30;;;12.90;99.90;;;;;;5044727;28;20797;-64
2022/12/26 06:18:13;;;;;;;5.80;5.40;;;12.90;99.90;;;;;;5048727;28;20435;-64
2022/12/26 06:20:39;;;;;;;4.80;4.60;;;12.90;99.90;;;;;;5048197;28;20179;-64
2022/12/26 06:23:05;;;;;;;5.20;4.90;;;12.90;99.90;;;;;;5050993;28;20209;-64
2022/12/26 06:25:31;;;;;;;5.20;4.90;;;12.80;99.90;;;;;;5045924;28;20508;-64
2022/12/26 06:27:57;;;;;;;5.60;4.77;;;12.90;99.90;;;;;;5044039;28;20501;-64
2022/12/26 06:30:22;;;;;;;5.10;4.80;;;13.00;99.90;;;;;;5041181;28;20784;-68
2022/12/26 06:32:48;;;;;;;4.97;4.57;;;13.00;99.90;;;;;;5036485;28;20182;-65
2022/12/26 06:35:14;;;;;;;5.30;5.00;;;13.00;99.90;;;;;;5042221;28;20692;-64
2022/12/26 06:37:40;;;;;;;4.83;4.63;;;13.10;99.90;;;;;;5048535;28;20199;-64
2022/12/26 06:40:06;;;;;;;4.70;4.50;;;13.10;99.90;;;;;;5037426;28;20622;-64
2022/12/26 06:42:32;;;;;;;5.40;5.10;;;13.10;99.90;;;;;;5043908;28;20187;-64
2022/12/26 06:44:57;;;;;;;5.13;4.83;;;13.10;99.90;;;;;;5049327;28;20428;-65
2022/12/26 06:47:23;;;;;;;4.70;4.40;;;13.20;99.90;;;;;;5053373;28;20558;-68
2022/12/26 06:49:49;;;;;;;5.67;5.17;;;13.20;99.90;;;;;;5045228;28;20178;-65
2022/12/26 06:52:15;;;;;;;5.83;5.37;;;13.10;99.90;;;;;;5050264;28;20750;-64
2022/12/26 06:54:40;;;;;;;5.30;4.90;;;13.10;99.90;;;;;;5036178;28;20183;-64
2022/12/26 06:57:06;;;;;;;6.20;5.70;;;13.10;99.90;;;;;;5040338;28;20309;-63
2022/12/26 06:59:32;;;;;;;5.30;5.00;;;13.10;99.90;;;;;;5046930;28;20190;-64
2022/12/26 07:01:57;;;;;;;5.70;5.30;;;13.00;99.90;;;;;;5057597;28;20186;-67
2022/12/26 07:04:23;;;;;;;5.80;5.23;;;13.10;99.90;;;;;;5056602;28;20185;-69
2022/12/26 07:06:49;;;;;;;5.70;5.40;;;13.20;99.90;;;;;;5052448;28;20198;-64
2022/12/26 07:09:18;;;;;;;5.87;5.53;;;13.10;99.90;;;;;;5039205;28;20461;-64
2022/12/26 07:11:48;;;;;;;6.13;5.63;;;13.10;99.90;;;;;;5047999;28;20418;-64
2022/12/26 07:14:14;;;;;;;5.67;5.33;;;13.10;99.90;;;;;;5050908;28;20427;-64
2022/12/26 07:16:42;;;;;;;4.90;4.70;;;13.10;99.90;;;;;;5034527;28;20473;-64
2022/12/26 07:19:12;;;;;;;5.70;5.20;;;13.00;99.90;;;;;;5039565;28;20437;-64
2022/12/26 07:21:39;;;;;;;5.50;5.20;;;13.10;99.90;;;;;;5044737;28;20441;-67
2022/12/26 07:24:05;;;;;;;5.50;5.10;;;13.10;99.90;;;;;;5043753;28;20429;-64
2022/12/26 07:26:31;;;;;;;5.20;4.80;;;13.10;99.90;;;;;;5050115;28;20444;-65
2022/12/26 07:28:57;;;;;;;5.10;4.80;;;13.10;99.90;;;;;;5065827;28;20433;-66
2022/12/26 07:31:24;;;;;;;5.87;5.40;;;13.20;99.90;;;;;;5059203;28;20189;-68
2022/12/26 07:33:52;;;;;;;5.03;4.73;;;13.00;99.90;;;;;;5035622;28;20480;-64
2022/12/26 07:36:19;;;;;;;5.80;5.40;;;13.10;99.90;;;;;;5046092;28;20874;-64
2022/12/26 07:38:45;;;;;;;5.33;5.03;;;13.10;99.90;;;;;;5050112;28;20515;-64
2022/12/26 07:43:55;;;;;;;5.90;5.50;;;13.10;99.90;;;;;;5042349;28;20431;-69
2022/12/26 07:46:21;;;;;;;6.43;6.13;;;13.00;99.90;;;;;;5038108;28;20430;-66
2022/12/26 07:48:47;;;;;;;7.67;7.27;;;13.20;99.90;;;;;;5036032;28;20712;-67
2022/12/26 07:51:13;;;;;;;8.63;8.17;;;13.20;99.90;;;;;;5041764;28;20182;-67
2022/12/26 07:53:39;;;;;;;8.93;8.30;;;13.40;99.90;;;;;;5039187;28;20438;-66
2022/12/26 07:56:05;;;;;;;8.77;8.37;;;13.40;99.90;;;;;;5035642;28;20301;-65
2022/12/26 07:58:30;;;;;;;8.70;8.20;;;13.50;99.90;;;;;;5039308;28;20438;-66
2022/12/26 08:01:03;;;;;;;9.70;9.10;;;13.60;99.90;;;;;;5040043;28;20435;-67
2022/12/26 08:03:29;;;;;;;9.03;8.50;;;13.70;99.90;;;;;;5043641;28;20629;-69
2022/12/26 08:05:55;;;;;;;9.20;8.63;;;13.80;99.90;;;;;;5042182;28;20450;-65
2022/12/26 08:08:20;;;;;;;9.33;8.53;;;13.80;99.90;;;;;;5044453;28;20179;-67
2022/12/26 08:10:46;;;;;;;8.80;8.20;;;13.90;99.90;;;;;;5034712;28;21030;-66
2022/12/26 08:13:12;;;;;;;9.50;8.90;;;13.90;99.90;;;;;;5043716;28;20191;-65
2022/12/26 08:15:39;;;;;;;13.13;12.53;;;13.90;99.90;;;;;;5034607;28;20223;-64
2022/12/26 08:18:05;;;;;;;12.70;12.13;;;14.20;99.90;;;;;;5041217;28;20173;-65
2022/12/26 08:20:31;;;;;;;12.83;12.13;;;14.50;99.90;;;;;;5042361;28;20489;-66
2022/12/26 08:22:56;;;;;;;13.40;12.70;;;14.60;99.90;;;;;;5045188;28;20839;-65
2022/12/26 08:25:22;;;;;;;12.10;11.50;;;14.80;99.90;;;;;;5046750;28;20185;-66
2022/12/26 08:27:48;;;;;;;10.00;9.50;;;14.90;99.90;;;;;;5042761;28;20629;-66
2022/12/26 08:30:13;;;;;;;10.20;9.80;;;15.10;99.90;;;;;;5041692;28;20245;-66
2022/12/26 08:32:39;;;;;;;7.87;7.47;;;15.30;99.90;;;;;;5039923;28;20237;-64
2022/12/26 08:35:05;;;;;;;5.53;5.33;;;15.50;99.90;;;;;;5043643;28;20223;-63
2022/12/26 08:37:31;;;;;;;5.63;5.43;;;15.40;99.90;;;;;;5039824;28;20276;-64
2022/12/26 08:39:57;;;;;;;5.37;5.07;;;15.10;99.90;;;;;;5041455;28;20523;-66
2022/12/26 08:42:22;;;;;;;5.30;5.00;;;14.90;99.90;;;;;;5043806;28;20181;-69
2022/12/26 08:44:48;;;;;;;5.00;4.70;;;14.70;99.90;;;;;;5047901;28;20213;-76
2022/12/26 08:47:14;;;;;;;4.77;4.50;;;14.50;99.90;;;;;;5042743;28;20272;-70
2022/12/26 08:49:40;;;;;;;26.90;22.33;;;14.30;99.90;;;;;;5036155;28;20172;-68
2022/12/26 08:52:06;;;;;;;75.77;52.00;;;14.10;99.90;;;;;;5034004;28;20495;-71
2022/12/26 08:54:32;;;;;;;18.90;15.13;;;14.00;99.90;;;;;;5045266;28;20238;-70
2022/12/26 08:56:58;;;;;;;141.20;83.90;;;13.90;99.90;;;;;;5047294;28;20471;-64
2022/12/26 08:59:23;;;;;;;16.13;14.50;;;13.80;99.90;;;;;;5051794;28;22173;-66
2022/12/26 09:01:49;;;;;;;53.87;40.80;;;13.90;99.90;;;;;;5049183;28;20184;-65
2022/12/26 09:04:15;;;;;;;38.80;31.27;;;14.10;99.90;;;;;;5050531;28;20194;-63
2022/12/26 09:06:41;;;;;;;3.83;3.53;;;14.30;99.90;;;;;;5045906;28;20190;-69
2022/12/26 09:09:12;;;;;;;3.27;3.17;;;14.20;99.90;;;;;;5046144;28;20189;-63
2022/12/26 09:11:39;;;;;;;4.00;3.80;;;14.10;99.90;;;;;;5046110;28;20668;-63
2022/12/26 09:14:05;;;;;;;3.83;3.30;;;13.90;99.90;;;;;;5049245;28;20430;-66
2022/12/26 09:16:35;;;;;;;3.20;3.00;;;13.80;99.90;;;;;;5038408;28;20524;-69
2022/12/26 09:19:03;;;;;;;3.30;3.20;;;13.60;99.90;;;;;;5042144;28;20443;-67
2022/12/26 09:21:30;;;;;;;3.40;3.20;;;13.50;99.90;;;;;;5050557;28;20481;-68
2022/12/26 09:23:57;;;;;;;2.80;2.70;;;13.50;99.90;;;;;;5054291;28;20442;-65
2022/12/26 09:26:23;;;;;;;3.30;3.20;;;13.40;99.90;;;;;;5046235;28;20524;-65
2022/12/26 09:28:50;;;;;;;3.40;3.10;;;13.40;99.90;;;;;;5046130;28;21170;-65
2022/12/26 09:31:27;;;;;;;3.10;3.00;;;13.30;99.90;;;;;;5051562;28;20456;-68
2022/12/26 09:33:53;;;;;;;3.00;2.80;;;13.20;99.90;;;;;;5037526;28;20474;-66
2022/12/26 09:36:25;;;;;;;3.37;3.17;;;13.20;99.90;;;;;;5049204;28;20557;-66
2022/12/26 09:38:51;;;;;;;5.00;3.30;;;13.20;99.90;;;;;;5045239;28;20461;-68
2022/12/26 09:41:38;;;;;;;3.33;3.23;;;13.20;99.90;;;;;;5038220;28;20435;-67
2022/12/26 09:44:22;;;;;;;2.93;2.80;;;13.10;99.90;;;;;;5051420;28;20495;-68
2022/12/26 09:47:18;;;;;;;2.80;2.70;;;13.10;99.90;;;;;;5050220;28;20441;-67
2022/12/26 09:49:55;;;;;;;67.73;53.90;;;13.20;99.90;;;;;;5047421;28;20470;-67
2022/12/26 09:52:31;;;;;;;4.43;4.03;;;13.10;99.90;;;;;;5034996;28;20439;-68
2022/12/26 09:55:01;;;;;;;3.03;2.93;;;13.00;99.90;;;;;;5047594;28;20911;-68
2022/12/26 09:57:41;;;;;;;3.03;2.83;;;13.00;99.90;;;;;;5048101;28;20465;-67
2022/12/26 10:00:17;;;;;;;2.97;2.87;;;13.00;99.90;;;;;;5044526;28;20441;-64
2022/12/26 10:02:48;;;;;;;3.10;3.00;;;13.00;99.90;;;;;;5034465;28;20932;-71
2022/12/26 10:05:13;;;;;;;3.00;2.90;;;13.00;99.90;;;;;;5037242;28;20438;-66
2022/12/26 10:07:47;;;;;;;3.10;3.00;;;13.10;99.90;;;;;;5044808;28;20445;-65
2022/12/26 10:10:37;;;;;;;3.37;3.17;;;13.20;99.90;;;;;;5047754;28;20212;-67
2022/12/26 10:13:21;;;;;;;3.10;3.00;;;13.30;99.90;;;;;;5044783;28;20947;-67
2022/12/26 10:16:10;;;;;;;2.90;2.77;;;13.50;99.90;;;;;;5041019;28;20479;-64
2022/12/26 10:19:13;;;;;;;3.37;3.13;;;13.80;99.90;;;;;;5032256;28;20436;-69
2022/12/26 10:21:57;;;;;;;3.10;2.80;;;14.00;99.90;;;;;;5036677;28;21647;-64
2022/12/26 10:24:28;;;;;;;3.57;3.27;;;14.20;99.90;;;;;;5037681;28;20433;-68
2022/12/26 10:27:00;;;;;;;7.73;6.20;;;14.50;99.90;;;;;;5032551;28;20477;-70
2022/12/26 10:29:40;;;;;;;19.20;9.30;;;15.40;99.90;;;;;;5045861;28;20531;-72
2022/12/26 10:32:20;;;;;;;3.90;3.80;;;15.80;99.90;;;;;;5052394;28;20872;-69
2022/12/26 10:34:48;;;;;;;4.53;4.20;;;15.60;99.90;;;;;;5040806;28;20517;-69
2022/12/26 10:37:38;;;;;;;3.10;2.93;;;15.70;99.90;;;;;;5049153;28;20475;-69
2022/12/26 10:40:39;;;;;;;3.07;2.97;;;15.30;99.90;;;;;;5038786;28;20426;-69
2022/12/26 10:43:32;;;;;;;4.43;4.10;;;14.90;99.90;;;;;;5046753;28;20440;-69
2022/12/26 10:46:09;;;;;;;2.87;2.77;;;14.80;99.90;;;;;;5042287;28;20439;-69
2022/12/26 10:48:34;;;;;;;5.60;3.80;;;14.90;99.90;;;;;;5044710;28;20926;-69
2022/12/26 10:51:00;;;;;;;4.60;4.30;;;14.90;99.90;;;;;;5046119;28;20520;-75
2022/12/26 10:53:26;;;;;;;3.00;2.80;;;15.00;99.90;;;;;;5043955;28;20436;-70
2022/12/26 10:55:52;;;;;;;2.53;2.43;;;15.10;99.90;;;;;;5043034;28;20293;-69
2022/12/26 10:58:44;;;;;;;2.90;2.70;;;14.80;99.90;;;;;;5042747;28;20218;-69
2022/12/26 11:01:39;;;;;;;3.00;2.90;;;14.70;99.90;;;;;;5035117;28;20200;-70
2022/12/26 11:04:22;;;;;;;3.80;3.60;;;14.40;99.90;;;;;;5042893;28;20428;-76
2022/12/26 11:06:54;;;;;;;4.20;3.90;;;14.40;99.90;;;;;;5050392;28;20442;-67
2022/12/26 11:09:39;;;;;;;3.40;3.20;;;14.40;99.90;;;;;;5040932;28;20439;-67
2022/12/26 11:12:20;;;;;;;4.30;3.90;;;14.20;99.90;;;;;;5046801;28;20498;-67
2022/12/26 11:14:47;;;;;;;4.53;4.27;;;14.20;99.90;;;;;;5041772;28;21117;-66
2022/12/26 11:17:23;;;;;;;3.47;3.17;;;14.20;99.90;;;;;;5040810;28;20566;-64
2022/12/26 11:19:49;;;;;;;2.87;2.77;;;14.10;99.90;;;;;;5035465;28;21003;-64
2022/12/26 11:22:27;;;;;;;3.13;3.03;;;14.00;99.90;;;;;;5034843;28;20508;-64
2022/12/26 11:25:14;;;;;;;3.50;3.20;;;13.90;99.90;;;;;;5042878;28;20198;-64
2022/12/26 11:27:46;;;;;;;3.20;3.00;;;13.70;99.90;;;;;;5028400;28;20434;-64
2022/12/26 11:30:30;;;;;;;2.90;2.80;;;13.60;99.90;;;;;;5036660;28;20429;-65
2022/12/26 11:33:27;;;;;;;3.10;2.93;;;13.50;99.90;;;;;;5037089;28;20435;-65
2022/12/26 11:36:05;;;;;;;4.33;4.00;;;13.30;99.90;;;;;;5030280;28;20464;-64
2022/12/26 11:38:43;;;;;;;3.80;3.50;;;13.30;99.90;;;;;;5035359;28;20560;-68
2022/12/26 11:41:35;;;;;;;3.37;3.10;;;13.30;99.90;;;;;;5043018;28;20433;-64
2022/12/26 11:44:12;;;;;;;2.90;2.70;;;13.30;99.90;;;;;;5046098;28;20414;-65
2022/12/26 11:46:54;;;;;;;2.67;2.57;;;13.10;99.90;;;;;;5040507;28;20793;-66
2022/12/26 11:49:28;;;;;;;3.23;3.03;;;13.10;99.90;;;;;;5037581;28;20529;-66
2022/12/26 11:51:57;;;;;;;2.90;2.80;;;13.10;99.90;;;;;;5043907;28;20786;-66
2022/12/26 11:54:35;;;;;;;2.97;2.70;;;13.10;99.90;;;;;;5039251;28;20423;-66
2022/12/26 11:57:14;;;;;;;3.47;3.20;;;13.10;99.90;;;;;;5043280;28;20449;-65
2022/12/26 11:59:39;;;;;;;4.17;3.17;;;13.10;99.90;;;;;;5045229;28;20428;-65
2022/12/26 12:02:16;;;;;;;3.50;3.27;;;13.20;99.90;;;;;;5043872;28;20424;-66
2022/12/26 12:04:43;;;;;;;3.53;3.33;;;13.20;99.90;;;;;;5038183;28;20173;-65
2022/12/26 12:07:32;;;;;;;3.43;3.17;;;13.10;99.90;;;;;;5043939;28;20518;-67
2022/12/26 12:10:11;;;;;;;5.00;4.60;;;13.20;99.90;;;;;;5029140;28;20427;-65
2022/12/26 12:13:03;;;;;;;4.60;4.30;;;13.10;99.90;;;;;;5046833;28;20792;-64
2022/12/26 12:15:43;;;;;;;4.37;4.17;;;13.10;99.90;;;;;;5033352;28;20511;-65
2022/12/26 12:18:30;;;;;;;3.30;3.00;;;13.10;99.90;;;;;;5025388;28;20790;-65
2022/12/26 12:21:14;;;;;;;3.10;3.00;;;13.10;99.90;;;;;;5044636;28;20433;-65
2022/12/26 12:23:49;;;;;;;3.10;2.67;;;13.20;99.90;;;;;;5035639;28;20942;-65
2022/12/26 12:26:29;;;;;;;2.87;2.77;;;13.20;99.90;;;;;;5044553;28;20438;-67
2022/12/26 12:29:25;;;;;;;5.63;3.10;;;13.20;99.90;;;;;;5039748;28;20419;-66
2022/12/26 12:31:54;;;;;;;3.73;3.40;;;13.30;99.90;;;;;;5039878;28;20569;-65
2022/12/26 12:34:54;;;;;;;4.00;2.90;;;13.30;99.90;;;;;;5031660;28;21525;-65
2022/12/26 12:37:36;;;;;;;3.37;3.17;;;13.30;99.90;;;;;;5035170;28;20463;-64
2022/12/26 12:40:30;;;;;;;3.53;3.17;;;13.20;99.90;;;;;;5037243;28;20470;-65
2022/12/26 12:43:14;;;;;;;2.97;2.77;;;13.20;99.90;;;;;;5048700;28;20401;-65
2022/12/26 12:46:23;;;;;;;2.70;2.60;;;13.10;99.90;;;;;;5053709;28;20512;-64
2022/12/26 12:48:55;;;;;;;3.70;3.40;;;13.10;99.90;;;;;;5046122;28;20752;-68
2022/12/26 12:51:56;;;;;;;3.20;2.77;;;13.00;99.90;;;;;;5042764;28;20440;-66
2022/12/26 12:54:49;;;;;;;2.80;2.70;;;13.00;99.90;;;;;;5041220;28;20453;-64
2022/12/26 12:57:48;;;;;;;3.33;3.00;;;13.00;99.90;;;;;;5034641;28;20479;-67
2022/12/26 13:00:30;;;;;;;3.40;3.20;;;13.00;99.90;;;;;;5041384;28;20425;-68
2022/12/26 13:03:12;;;;;;;4.97;3.27;;;13.00;99.90;;;;;;5026451;28;20434;-67
2022/12/26 13:05:53;;;;;;;3.17;2.97;;;13.00;99.90;;;;;;5037205;28;20437;-68
2022/12/26 13:08:27;;;;;;;2.60;2.50;;;13.00;99.90;;;;;;5033364;28;20872;-65
2022/12/26 13:11:06;;;;;;;3.03;2.93;;;13.00;99.90;;;;;;5049003;28;20952;-66
2022/12/26 13:13:53;;;;;;;3.27;2.87;;;13.00;99.90;;;;;;5048218;28;20972;-70
2022/12/26 13:16:32;;;;;;;3.30;3.10;;;13.00;99.90;;;;;;5047263;28;20447;-67
2022/12/26 13:19:05;;;;;;;2.70;2.60;;;12.80;99.90;;;;;;5050919;28;20500;-66
2022/12/26 13:21:36;;;;;;;2.83;2.70;;;12.90;99.90;;;;;;5053782;28;20427;-65
2022/12/26 13:24:23;;;;;;;2.67;2.57;;;12.80;99.90;;;;;;5044930;28;20430;-66
2022/12/26 13:27:20;;;;;;;2.47;2.37;;;12.80;99.90;;;;;;5046517;28;20472;-67
2022/12/26 13:29:47;;;;;;;3.10;2.90;;;12.80;99.90;;;;;;5040943;28;20995;-68
2022/12/26 13:32:24;;;;;;;2.63;2.53;;;12.70;99.90;;;;;;5041878;28;20427;-68
2022/12/26 13:34:52;;;;;;;2.80;2.60;;;12.50;99.90;;;;;;5043354;28;20508;-67
2022/12/26 13:37:36;;;;;;;2.90;2.33;;;12.40;99.90;;;;;;5042759;28;20520;-67
2022/12/26 13:40:12;;;;;;;4.83;2.90;;;12.30;99.90;;;;;;5037694;28;21238;-66
2022/12/26 13:45:45;;;;;;;15.80;11.60;;;12.10;99.90;;;;;;5035833;28;20985;-69
2022/12/26 13:48:16;;;;;;;59.17;39.33;;;11.80;99.90;;;;;;5033339;28;20920;-68
2022/12/26 13:50:52;;;;;;;27.63;22.17;;;11.80;99.90;;;;;;5037900;28;20431;-69
2022/12/26 13:53:24;;;;;;;39.60;26.53;;;11.70;99.90;;;;;;5026017;28;20444;-68
2022/12/26 13:56:16;;;;;;;6.10;5.50;;;11.70;99.90;;;;;;5041592;28;20817;-68
2022/12/26 13:59:19;;;;;;;4.17;3.80;;;11.70;99.90;;;;;;5029797;28;20457;-70
2022/12/26 14:01:56;;;;;;;3.93;3.53;;;11.70;99.90;;;;;;5032196;28;20426;-67
2022/12/26 14:04:49;;;;;;;4.23;3.90;;;11.60;99.90;;;;;;5041470;28;20446;-66
2022/12/26 14:07:33;;;;;;;3.70;3.40;;;11.60;99.90;;;;;;5036698;28;20490;-66
2022/12/26 14:10:39;;;;;;;4.17;3.73;;;11.70;99.90;;;;;;5048288;28;20432;-66
2022/12/26 14:13:26;;;;;;;4.23;3.97;;;11.60;99.90;;;;;;5047371;28;20441;-67
2022/12/26 14:16:03;;;;;;;4.40;3.97;;;11.70;99.90;;;;;;5042156;28;20526;-67
2022/12/26 14:18:49;;;;;;;3.90;3.50;;;11.70;99.90;;;;;;5045589;28;20911;-66
2022/12/26 14:21:45;;;;;;;4.47;4.07;;;11.80;99.90;;;;;;5040711;28;20439;-66
2022/12/26 14:24:11;;;;;;;3.80;3.60;;;11.80;99.90;;;;;;5040463;28;20844;-66
2022/12/26 14:26:47;;;;;;;3.70;3.40;;;11.80;99.90;;;;;;5022746;28;20433;-67
2022/12/26 14:29:46;;;;;;;4.77;3.33;;;11.90;99.90;;;;;;5041296;28;20595;-68
2022/12/26 14:32:35;;;;;;;5.00;4.33;;;11.90;99.90;;;;;;5043720;28;20424;-66
2022/12/26 14:35:06;;;;;;;4.87;4.10;;;11.90;99.90;;;;;;5043964;28;21009;-65
2022/12/26 14:37:41;;;;;;;4.23;3.93;;;12.00;99.90;;;;;;5040551;28;20480;-70
2022/12/26 14:40:21;;;;;;;3.80;3.60;;;12.00;99.90;;;;;;5043218;28;20440;-65
2022/12/26 14:43:12;;;;;;;4.13;3.73;;;12.00;99.90;;;;;;5035859;28;20440;-67
2022/12/26 14:45:50;;;;;;;4.10;3.80;;;12.00;99.90;;;;;;5033867;28;20489;-66
2022/12/26 14:48:15;;;;;;;5.00;4.37;;;12.00;99.90;;;;;;5035663;28;20564;-66
2022/12/26 14:50:49;;;;;;;6.87;5.40;;;12.00;99.90;;;;;;5042142;28;20854;-67
2022/12/26 14:53:27;;;;;;;6.47;5.30;;;12.00;99.90;;;;;;5036162;28;20173;-64
2022/12/26 14:56:13;;;;;;;11.97;10.50;;;12.00;99.90;;;;;;5040425;28;20466;-65
2022/12/26 14:58:48;;;;;;;122.07;80.30;;;12.00;99.90;;;;;;5030457;28;20525;-65
2022/12/26 15:01:14;;;;;;;15.63;13.00;;;11.90;99.90;;;;;;5035515;28;20454;-64
2022/12/26 15:04:01;;;;;;;8.63;7.53;;;12.00;99.90;;;;;;5040727;28;20448;-66
2022/12/26 15:07:09;;;;;;;7.40;6.67;;;12.00;99.90;;;;;;5036034;28;20193;-70
2022/12/26 15:09:58;;;;;;;6.57;5.97;;;12.00;99.90;;;;;;5038430;28;20434;-69
2022/12/26 15:12:50;;;;;;;7.20;6.60;;;12.00;99.90;;;;;;5050402;28;20785;-66
2022/12/26 15:15:26;;;;;;;9.10;7.00;;;12.00;99.90;;;;;;5042287;28;20446;-67
2022/12/26 15:18:17;;;;;;;8.13;6.20;;;11.90;99.90;;;;;;5044199;28;20985;-68
2022/12/26 15:20:42;;;;;;;10.43;6.20;;;11.80;99.90;;;;;;5034444;28;20448;-71
2022/12/26 15:23:10;;;;;;;6.50;5.90;;;11.70;99.90;;;;;;5036402;28;20932;-69
2022/12/26 15:25:48;;;;;;;9.47;6.70;;;11.60;99.90;;;;;;5042435;28;20193;-70
2022/12/26 15:28:35;;;;;;;7.63;6.23;;;11.60;99.90;;;;;;5038659;28;20947;-70